Latest Weather Observations for Lord Howe Island Windy Point

IDN60801

Issued at 4:05 pm EDT Sunday 21 December 2014 (issued every 30 minutes, with the page automatically refreshed every 10 minutes)

About weather observations | Map of weather stations | Latest weather observations for NSW | Other Formats
Station Details ID: 200715 Name: LORD HOWE ISLAND WINDY POINT Lat: -31.54 Lon: 159.07 Height: 4.0 m
Data from the previous 72 hours. | See also: Recent months for locations in New South Wales
Date/Time
EDT
Temp
°C
App
Temp
°C
Dew
Point
Rel
Hum
%
Delta-T
°C
Wind Press
QNH
hPa
Press
MSL
hPa
Rain
since 9 am
mm
Dir
 
Spd
km/h
Gust
km/h
Spd
kts
Gust
kts
21/04:00pm - - - - - SSE 13 24 7 13 - - -
21/03:30pm - - - - - SSE 17 35 9 19 - - -
21/03:00pm - - - - - S 20 43 11 23 - - -
21/02:30pm - - - - - S 22 39 12 21 - - -
21/02:00pm - - - - - S 20 35 11 19 - - -
21/01:30pm - - - - - SSW 17 26 9 14 - - -
21/01:00pm - - - - - SSE 22 33 12 18 - - -
21/12:30pm - - - - - S 20 35 11 19 - - -
21/12:00pm - - - - - S 17 24 9 13 - - -
21/11:30am - - - - - SSE 11 17 6 9 - - -
21/11:00am - - - - - SSE 13 22 7 12 - - -
21/10:30am - - - - - SSE 15 30 8 16 - - -
21/10:00am - - - - - ESE 24 35 13 19 - - -
21/09:30am - - - - - SE 13 22 7 12 - - -
21/09:00am - - - - - ESE 20 35 11 19 - - -
21/08:30am - - - - - ESE 19 28 10 15 - - -
21/08:00am - - - - - ESE 19 32 10 17 - - -
21/07:30am - - - - - ESE 19 28 10 15 - - -
21/07:00am - - - - - ESE 17 24 9 13 - - -
21/06:30am - - - - - SE 13 20 7 11 - - -
21/06:00am - - - - - ESE 17 24 9 13 - - -
21/05:30am - - - - - ESE 13 20 7 11 - - -
21/05:00am - - - - - ESE 7 11 4 6 - - -
21/04:30am - - - - - SE 11 20 6 11 - - -
21/04:00am - - - - - SE 9 15 5 8 - - -
21/03:30am - - - - - ESE 7 9 4 5 - - -
21/03:00am - - - - - SE 7 13 4 7 - - -
21/02:30am - - - - - SE 7 11 4 6 - - -
21/02:00am - - - - - SE 7 11 4 6 - - -
21/01:30am - - - - - SE 9 17 5 9 - - -
21/01:00am - - - - - SE 15 20 8 11 - - -
21/12:30am - - - - - ESE 11 17 6 9 - - -
21/12:00am - - - - - SE 11 17 6 9 - - -
 
Date/Time
EDT
Temp
°C
App
Temp
°C
Dew
Point
Rel
Hum
%
Delta-T
°C
Wind Press
QNH
hPa
Press
MSL
hPa
Rain
since 9 am
mm
Dir
 
Spd
km/h
Gust
km/h
Spd
kts
Gust
kts
20/11:30pm - - - - - SE 13 20 7 11 - - -
20/11:00pm - - - - - ESE 17 24 9 13 - - -
20/10:30pm - - - - - ESE 13 24 7 13 - - -
20/10:00pm - - - - - S 13 24 7 13 - - -
20/09:30pm - - - - - SE 9 17 5 9 - - -
20/09:00pm - - - - - SSE 11 22 6 12 - - -
20/08:30pm - - - - - S 20 32 11 17 - - -
20/08:00pm - - - - - S 17 44 9 24 - - -
20/07:30pm - - - - - S 20 33 11 18 - - -
20/07:00pm - - - - - S 20 35 11 19 - - -
20/06:30pm - - - - - SSE 20 32 11 17 - - -
20/06:00pm - - - - - S 24 35 13 19 - - -
20/05:30pm - - - - - SSW 28 39 15 21 - - -
20/05:00pm - - - - - SSW 28 46 15 25 - - -
20/04:59pm - - - - - SSW 28 46 15 25 - - -
20/04:30pm - - - - - SSW 32 41 17 22 - - -
20/04:00pm - - - - - SSW 32 37 17 20 - - -
20/03:30pm - - - - - SSW 33 39 18 21 - - -
20/03:00pm - - - - - SSW 32 37 17 20 - - -
20/02:30pm - - - - - SSW 30 35 16 19 - - -
20/02:00pm - - - - - SSW 30 39 16 21 - - -
20/01:30pm - - - - - SSW 28 35 15 19 - - -
20/01:00pm - - - - - SSW 30 37 16 20 - - -
20/12:30pm - - - - - SSW 32 35 17 19 - - -
20/12:00pm - - - - - SSW 28 35 15 19 - - -
20/11:30am - - - - - SSW 30 37 16 20 - - -
20/11:00am - - - - - SSW 30 35 16 19 - - -
20/10:30am - - - - - SSW 32 39 17 21 - - -
20/10:00am - - - - - SSW 32 37 17 20 - - -
20/09:30am - - - - - SSW 35 41 19 22 - - -
20/09:00am - - - - - SSW 33 39 18 21 - - -
20/08:30am - - - - - SSW 32 37 17 20 - - -
20/08:00am - - - - - SSW 30 35 16 19 - - -
20/07:30am - - - - - S 24 35 13 19 - - -
20/07:00am - - - - - SSW 32 44 17 24 - - -
20/06:30am - - - - - SSW 30 39 16 21 - - -
20/06:00am - - - - - S 24 33 13 18 - - -
20/05:30am - - - - - S 28 37 15 20 - - -
20/05:00am - - - - - S 17 33 9 18 - - -
20/04:30am - - - - - S 20 30 11 16 - - -
20/04:00am - - - - - S 28 41 15 22 - - -
20/03:30am - - - - - SSW 32 39 17 21 - - -
20/03:07am - - - - - SSW 33 52 18 28 - - -
20/03:00am - - - - - SSW 35 46 19 25 - - -
20/02:40am - - - - - SSW 32 50 17 27 - - -
20/02:30am - - - - - SSW 37 46 20 25 - - -
20/02:00am - - - - - SSW 33 43 18 23 - - -
20/01:30am - - - - - SSW 33 43 18 23 - - -
20/01:00am - - - - - SSW 30 43 16 23 - - -
20/12:30am - - - - - SSW 32 39 17 21 - - -
20/12:00am - - - - - SSW 28 41 15 22 - - -
 
Date/Time
EDT
Temp
°C
App
Temp
°C
Dew
Point
Rel
Hum
%
Delta-T
°C
Wind Press
QNH
hPa
Press
MSL
hPa
Rain
since 9 am
mm
Dir
 
Spd
km/h
Gust
km/h
Spd
kts
Gust
kts
19/11:30pm - - - - - WNW 24 41 13 22 - - -
19/11:26pm - - - - - NW 19 41 10 22 - - -
19/11:00pm - - - - - NNW 13 19 7 10 - - -
19/10:30pm - - - - - NNW 13 19 7 10 - - -
19/10:00pm - - - - - NW 9 19 5 10 - - -
19/09:30pm - - - - - NW 4 11 2 6 - - -
19/09:00pm - - - - - NNW 6 13 3 7 - - -
19/08:30pm - - - - - WSW 2 7 1 4 - - -
19/08:00pm - - - - - NW 2 11 1 6 - - -
19/07:30pm - - - - - NW 11 17 6 9 - - -
19/07:00pm - - - - - WNW 6 11 3 6 - - -
19/06:30pm - - - - - NW 15 20 8 11 - - -
19/06:00pm - - - - - NW 9 19 5 10 - - -
19/05:30pm - - - - - NW 19 24 10 13 - - -
19/05:00pm - - - - - WNW 19 26 10 14 - - -
19/04:30pm - - - - - NW 17 26 9 14 - - -
19/04:00pm - - - - - NW 20 26 11 14 - - -
19/03:30pm - - - - - NW 24 28 13 15 - - -
19/03:00pm - - - - - NW 24 32 13 17 - - -
19/02:30pm - - - - - NNW 17 24 9 13 - - -
19/02:00pm - - - - - NNW 20 28 11 15 - - -
19/01:30pm - - - - - NW 17 26 9 14 - - -
19/01:00pm - - - - - NW 17 26 9 14 - - -
19/12:30pm - - - - - NNW 15 35 8 19 - - -
19/12:00pm - - - - - NNW 17 32 9 17 - - -
19/11:30am - - - - - NW 15 28 8 15 - - -
19/11:00am - - - - - WNW 19 24 10 13 - - -
19/10:30am - - - - - NW 19 24 10 13 - - -
19/10:00am - - - - - NW 17 24 9 13 - - -
19/09:30am - - - - - NW 19 26 10 14 - - -
19/09:00am - - - - - NW 22 30 12 16 - - -
19/08:30am - - - - - NW 20 26 11 14 - - -
19/08:00am - - - - - WNW 30 35 16 19 - - -
19/07:30am - - - - - WNW 28 35 15 19 - - -
19/07:00am - - - - - WNW 30 39 16 21 - - -
19/06:30am - - - - - WNW 30 37 16 20 - - -
19/06:00am - - - - - NW 32 41 17 22 - - -
19/05:30am - - - - - NW 33 43 18 23 - - -
19/05:00am - - - - - NW 28 41 15 22 - - -
19/04:30am - - - - - W 28 44 15 24 - - -
19/04:01am - - - - - NNW 28 46 15 25 - - -
19/04:00am - - - - - NNW 26 46 14 25 - - -
19/03:56am - - - - - NNW 28 48 15 26 - - -
19/03:30am - - - - - NNW 24 43 13 23 - - -
19/03:03am - - - - - NNW 28 48 15 26 - - -
19/03:00am - - - - - NNW 24 35 13 19 - - -
19/02:30am - - - - - NNW 30 56 16 30 - - -
19/02:00am - - - - - NNW 28 57 15 31 - - -
19/01:30am - - - - - NNW 30 56 16 30 - - -
19/01:00am - - - - - NNW 28 48 15 26 - - -
19/12:34am - - - - - NW 32 54 17 29 - - -
19/12:30am - - - - - NW 30 44 16 24 - - -
19/12:10am - - - - - NW 28 52 15 28 - - -
19/12:00am - - - - - NW 28 43 15 23 - - -
 
Date/Time
EDT
Temp
°C
App
Temp
°C
Dew
Point
Rel
Hum
%
Delta-T
°C
Wind Press
QNH
hPa
Press
MSL
hPa
Rain
since 9 am
mm
Dir
 
Spd
km/h
Gust
km/h
Spd
kts
Gust
kts
18/11:30pm - - - - - NNW 24 46 13 25 - - -
18/11:00pm - - - - - NNW 28 46 15 25 - - -
18/10:56pm - - - - - NW 28 46 15 25 - - -
18/10:30pm - - - - - NW 15 24 8 13 - - -
18/10:00pm - - - - - WNW 13 24 7 13 - - -
18/09:30pm - - - - - NE 9 19 5 10 - - -
18/09:00pm - - - - - W 11 17 6 9 - - -
18/08:30pm - - - - - NNW 11 26 6 14 - - -
18/08:00pm - - - - - ENE 9 22 5 12 - - -
18/07:30pm - - - - - SSE 7 11 4 6 - - -
18/07:00pm - - - - - WNW 6 15 3 8 - - -
18/06:30pm - - - - - W 7 13 4 7 - - -
18/06:00pm - - - - - NNW 7 17 4 9 - - -
18/05:30pm - - - - - NNE 11 17 6 9 - - -
18/05:00pm - - - - - NNW 17 26 9 14 - - -
18/04:30pm - - - - - NW 17 28 9 15 - - -

Other Formats:

Comma delimited format used in spreadsheet applications
http://www.bom.gov.au/fwo/IDN60801/IDN60801.95995.axf

JavaScript Object Notation format (JSON) in row-major order
http://www.bom.gov.au/fwo/IDN60801/IDN60801.95995.json